sensor_id;sensor_type;location;lat;lon;timestamp;P1;durP1;ratioP1;P2;durP2;ratioP2
25079;SDS011;13071;48.868;9.996;2023-08-06T00:00:29;3.65;;;3.22;;
25079;SDS011;13071;48.868;9.996;2023-08-06T00:02:56;4.55;;;3.20;;
25079;SDS011;13071;48.868;9.996;2023-08-06T00:05:23;4.55;;;3.53;;
25079;SDS011;13071;48.868;9.996;2023-08-06T00:07:49;4.25;;;3.17;;
25079;SDS011;13071;48.868;9.996;2023-08-06T00:10:17;4.15;;;3.20;;
25079;SDS011;13071;48.868;9.996;2023-08-06T00:12:44;5.63;;;3.60;;
25079;SDS011;13071;48.868;9.996;2023-08-06T00:15:12;6.22;;;3.47;;
25079;SDS011;13071;48.868;9.996;2023-08-06T00:17:39;6.25;;;3.72;;
25079;SDS011;13071;48.868;9.996;2023-08-06T00:20:06;4.35;;;3.80;;
25079;SDS011;13071;48.868;9.996;2023-08-06T00:22:34;4.35;;;3.65;;
25079;SDS011;13071;48.868;9.996;2023-08-06T00:25:01;5.63;;;3.78;;
25079;SDS011;13071;48.868;9.996;2023-08-06T00:27:28;4.65;;;4.20;;
25079;SDS011;13071;48.868;9.996;2023-08-06T00:29:55;5.18;;;3.83;;
25079;SDS011;13071;48.868;9.996;2023-08-06T00:32:23;5.63;;;4.32;;
25079;SDS011;13071;48.868;9.996;2023-08-06T00:34:50;5.97;;;4.30;;
25079;SDS011;13071;48.868;9.996;2023-08-06T00:37:17;5.88;;;4.13;;
25079;SDS011;13071;48.868;9.996;2023-08-06T00:39:44;5.55;;;4.07;;
25079;SDS011;13071;48.868;9.996;2023-08-06T00:42:11;6.47;;;4.10;;
25079;SDS011;13071;48.868;9.996;2023-08-06T00:44:38;5.43;;;4.20;;
25079;SDS011;13071;48.868;9.996;2023-08-06T00:47:05;7.57;;;4.25;;
25079;SDS011;13071;48.868;9.996;2023-08-06T00:49:35;5.18;;;4.13;;
25079;SDS011;13071;48.868;9.996;2023-08-06T00:52:03;5.80;;;4.28;;
25079;SDS011;13071;48.868;9.996;2023-08-06T00:54:31;6.28;;;4.25;;
25079;SDS011;13071;48.868;9.996;2023-08-06T00:56:58;6.30;;;4.03;;
25079;SDS011;13071;48.868;9.996;2023-08-06T00:59:25;3.75;;;2.97;;
25079;SDS011;13071;48.868;9.996;2023-08-06T01:01:53;3.90;;;3.50;;
25079;SDS011;13071;48.868;9.996;2023-08-06T01:04:19;4.07;;;3.28;;
25079;SDS011;13071;48.868;9.996;2023-08-06T01:06:48;3.92;;;3.53;;
25079;SDS011;13071;48.868;9.996;2023-08-06T01:09:28;4.32;;;3.90;;
25079;SDS011;13071;48.868;9.996;2023-08-06T01:12:05;5.88;;;4.32;;
25079;SDS011;13071;48.868;9.996;2023-08-06T01:14:37;3.90;;;3.35;;
25079;SDS011;13071;48.868;9.996;2023-08-06T01:17:14;7.15;;;3.72;;
25079;SDS011;13071;48.868;9.996;2023-08-06T01:19:40;4.65;;;3.42;;
25079;SDS011;13071;48.868;9.996;2023-08-06T01:22:08;4.25;;;3.63;;
25079;SDS011;13071;48.868;9.996;2023-08-06T01:24:35;3.55;;;3.13;;
25079;SDS011;13071;48.868;9.996;2023-08-06T01:27:03;4.07;;;3.35;;
25079;SDS011;13071;48.868;9.996;2023-08-06T01:29:34;4.30;;;3.25;;
25079;SDS011;13071;48.868;9.996;2023-08-06T01:32:07;4.25;;;3.42;;
25079;SDS011;13071;48.868;9.996;2023-08-06T01:34:36;4.25;;;3.42;;
25079;SDS011;13071;48.868;9.996;2023-08-06T01:37:06;4.80;;;3.10;;
25079;SDS011;13071;48.868;9.996;2023-08-06T01:39:35;4.65;;;3.50;;
25079;SDS011;13071;48.868;9.996;2023-08-06T01:42:01;4.15;;;3.20;;
25079;SDS011;13071;48.868;9.996;2023-08-06T01:44:28;7.65;;;3.58;;
25079;SDS011;13071;48.868;9.996;2023-08-06T01:46:55;5.93;;;3.33;;
25079;SDS011;13071;48.868;9.996;2023-08-06T01:49:22;4.45;;;3.28;;
25079;SDS011;13071;48.868;9.996;2023-08-06T01:58:36;5.25;;;3.45;;
25079;SDS011;13071;48.868;9.996;2023-08-06T02:01:02;5.38;;;3.63;;
25079;SDS011;13071;48.868;9.996;2023-08-06T02:03:29;4.72;;;3.83;;
25079;SDS011;13071;48.868;9.996;2023-08-06T02:05:56;4.88;;;3.90;;
25079;SDS011;13071;48.868;9.996;2023-08-06T02:08:22;5.65;;;3.88;;
25079;SDS011;13071;48.868;9.996;2023-08-06T02:10:49;3.58;;;3.17;;
25079;SDS011;13071;48.868;9.996;2023-08-06T02:13:16;4.03;;;3.25;;
25079;SDS011;13071;48.868;9.996;2023-08-06T02:15:44;4.22;;;3.33;;
25079;SDS011;13071;48.868;9.996;2023-08-06T02:18:12;4.72;;;3.38;;
25079;SDS011;13071;48.868;9.996;2023-08-06T02:20:39;3.47;;;3.10;;
25079;SDS011;13071;48.868;9.996;2023-08-06T02:23:06;3.42;;;3.10;;
25079;SDS011;13071;48.868;9.996;2023-08-06T02:25:33;4.60;;;3.05;;
25079;SDS011;13071;48.868;9.996;2023-08-06T02:27:59;4.65;;;3.17;;
25079;SDS011;13071;48.868;9.996;2023-08-06T02:30:26;7.75;;;3.58;;
25079;SDS011;13071;48.868;9.996;2023-08-06T02:32:54;3.38;;;3.08;;
25079;SDS011;13071;48.868;9.996;2023-08-06T02:35:21;5.03;;;3.50;;
25079;SDS011;13071;48.868;9.996;2023-08-06T02:37:48;6.03;;;3.40;;
25079;SDS011;13071;48.868;9.996;2023-08-06T02:40:15;4.07;;;3.05;;
25079;SDS011;13071;48.868;9.996;2023-08-06T02:42:41;3.50;;;3.10;;
25079;SDS011;13071;48.868;9.996;2023-08-06T02:45:08;3.70;;;3.05;;
25079;SDS011;13071;48.868;9.996;2023-08-06T02:47:35;4.30;;;3.42;;
25079;SDS011;13071;48.868;9.996;2023-08-06T02:50:03;6.45;;;3.80;;
25079;SDS011;13071;48.868;9.996;2023-08-06T02:52:31;4.65;;;3.42;;
25079;SDS011;13071;48.868;9.996;2023-08-06T02:54:57;4.15;;;3.00;;
25079;SDS011;13071;48.868;9.996;2023-08-06T02:57:25;3.47;;;3.00;;
25079;SDS011;13071;48.868;9.996;2023-08-06T02:59:52;2.67;;;2.47;;
25079;SDS011;13071;48.868;9.996;2023-08-06T03:02:18;8.52;;;3.47;;
25079;SDS011;13071;48.868;9.996;2023-08-06T03:04:45;4.00;;;2.80;;
25079;SDS011;13071;48.868;9.996;2023-08-06T03:07:13;3.20;;;2.90;;
25079;SDS011;13071;48.868;9.996;2023-08-06T03:09:40;3.03;;;2.63;;
25079;SDS011;13071;48.868;9.996;2023-08-06T03:12:06;2.63;;;2.38;;
25079;SDS011;13071;48.868;9.996;2023-08-06T03:14:34;2.92;;;2.72;;
25079;SDS011;13071;48.868;9.996;2023-08-06T03:17:00;2.90;;;2.65;;
25079;SDS011;13071;48.868;9.996;2023-08-06T03:19:27;4.95;;;2.63;;
25079;SDS011;13071;48.868;9.996;2023-08-06T03:21:53;3.22;;;2.92;;
25079;SDS011;13071;48.868;9.996;2023-08-06T03:24:21;3.22;;;2.70;;
25079;SDS011;13071;48.868;9.996;2023-08-06T03:26:48;4.25;;;3.60;;
25079;SDS011;13071;48.868;9.996;2023-08-06T03:29:15;3.47;;;3.00;;
25079;SDS011;13071;48.868;9.996;2023-08-06T03:31:41;3.42;;;2.78;;
25079;SDS011;13071;48.868;9.996;2023-08-06T03:34:08;4.68;;;3.45;;
25079;SDS011;13071;48.868;9.996;2023-08-06T03:36:35;7.70;;;2.83;;
25079;SDS011;13071;48.868;9.996;2023-08-06T03:39:01;3.28;;;2.83;;
25079;SDS011;13071;48.868;9.996;2023-08-06T03:41:29;3.83;;;2.72;;
25079;SDS011;13071;48.868;9.996;2023-08-06T03:43:56;7.43;;;3.30;;
25079;SDS011;13071;48.868;9.996;2023-08-06T03:46:23;3.88;;;2.97;;
25079;SDS011;13071;48.868;9.996;2023-08-06T03:48:50;4.10;;;3.40;;
25079;SDS011;13071;48.868;9.996;2023-08-06T03:51:17;3.20;;;2.90;;
25079;SDS011;13071;48.868;9.996;2023-08-06T03:53:44;2.55;;;2.35;;
25079;SDS011;13071;48.868;9.996;2023-08-06T03:56:10;3.10;;;2.80;;
25079;SDS011;13071;48.868;9.996;2023-08-06T03:58:38;4.13;;;2.67;;
25079;SDS011;13071;48.868;9.996;2023-08-06T04:01:05;2.90;;;2.60;;
25079;SDS011;13071;48.868;9.996;2023-08-06T04:03:31;3.00;;;2.33;;
25079;SDS011;13071;48.868;9.996;2023-08-06T04:05:58;2.50;;;2.30;;
25079;SDS011;13071;48.868;9.996;2023-08-06T04:08:26;2.47;;;2.28;;
25079;SDS011;13071;48.868;9.996;2023-08-06T04:10:52;3.05;;;2.40;;
25079;SDS011;13071;48.868;9.996;2023-08-06T04:13:19;5.53;;;2.30;;
25079;SDS011;13071;48.868;9.996;2023-08-06T04:15:47;7.28;;;2.35;;
25079;SDS011;13071;48.868;9.996;2023-08-06T04:18:17;2.13;;;1.92;;
25079;SDS011;13071;48.868;9.996;2023-08-06T04:20:43;4.35;;;2.45;;
25079;SDS011;13071;48.868;9.996;2023-08-06T04:23:11;3.22;;;2.28;;
25079;SDS011;13071;48.868;9.996;2023-08-06T04:25:38;2.78;;;2.55;;
25079;SDS011;13071;48.868;9.996;2023-08-06T04:28:04;2.80;;;2.55;;
25079;SDS011;13071;48.868;9.996;2023-08-06T04:30:31;2.53;;;2.33;;
25079;SDS011;13071;48.868;9.996;2023-08-06T04:32:59;5.05;;;2.40;;
25079;SDS011;13071;48.868;9.996;2023-08-06T04:35:26;3.38;;;2.47;;
25079;SDS011;13071;48.868;9.996;2023-08-06T04:37:52;2.25;;;2.05;;
25079;SDS011;13071;48.868;9.996;2023-08-06T04:40:19;4.50;;;2.72;;
25079;SDS011;13071;48.868;9.996;2023-08-06T04:42:46;5.28;;;2.55;;
25079;SDS011;13071;48.868;9.996;2023-08-06T04:45:12;2.30;;;2.10;;
25079;SDS011;13071;48.868;9.996;2023-08-06T04:47:39;2.70;;;2.10;;
25079;SDS011;13071;48.868;9.996;2023-08-06T04:50:07;3.65;;;2.80;;
25079;SDS011;13071;48.868;9.996;2023-08-06T04:52:34;4.30;;;2.60;;
25079;SDS011;13071;48.868;9.996;2023-08-06T04:55:01;3.15;;;2.28;;
25079;SDS011;13071;48.868;9.996;2023-08-06T04:57:28;2.70;;;2.13;;
25079;SDS011;13071;48.868;9.996;2023-08-06T04:59:55;2.38;;;2.17;;
25079;SDS011;13071;48.868;9.996;2023-08-06T05:02:22;7.20;;;2.17;;
25079;SDS011;13071;48.868;9.996;2023-08-06T05:04:48;2.05;;;1.90;;
25079;SDS011;13071;48.868;9.996;2023-08-06T05:07:16;2.40;;;2.03;;
25079;SDS011;13071;48.868;9.996;2023-08-06T05:09:43;2.55;;;2.35;;
25079;SDS011;13071;48.868;9.996;2023-08-06T05:12:10;2.05;;;1.88;;
25079;SDS011;13071;48.868;9.996;2023-08-06T05:14:36;3.00;;;1.58;;
25079;SDS011;13071;48.868;9.996;2023-08-06T05:17:03;4.28;;;1.52;;
25079;SDS011;13071;48.868;9.996;2023-08-06T05:19:30;3.00;;;1.52;;
25079;SDS011;13071;48.868;9.996;2023-08-06T05:21:56;1.50;;;1.40;;
25079;SDS011;13071;48.868;9.996;2023-08-06T05:24:27;1.63;;;1.52;;
25079;SDS011;13071;48.868;9.996;2023-08-06T05:26:54;2.83;;;1.70;;
25079;SDS011;13071;48.868;9.996;2023-08-06T05:29:20;2.05;;;1.52;;
25079;SDS011;13071;48.868;9.996;2023-08-06T05:31:47;5.85;;;1.92;;
25079;SDS011;13071;48.868;9.996;2023-08-06T05:34:14;2.35;;;1.58;;
25079;SDS011;13071;48.868;9.996;2023-08-06T05:36:40;1.20;;;1.20;;
25079;SDS011;13071;48.868;9.996;2023-08-06T05:39:07;1.70;;;1.50;;
25079;SDS011;13071;48.868;9.996;2023-08-06T05:41:35;2.45;;;1.63;;
25079;SDS011;13071;48.868;9.996;2023-08-06T05:44:02;2.17;;;1.50;;
25079;SDS011;13071;48.868;9.996;2023-08-06T05:46:28;1.63;;;1.50;;
25079;SDS011;13071;48.868;9.996;2023-08-06T05:48:55;2.03;;;1.42;;
25079;SDS011;13071;48.868;9.996;2023-08-06T05:51:22;5.10;;;1.42;;
25079;SDS011;13071;48.868;9.996;2023-08-06T05:53:49;1.42;;;1.33;;
25079;SDS011;13071;48.868;9.996;2023-08-06T05:56:17;1.65;;;1.40;;
25079;SDS011;13071;48.868;9.996;2023-08-06T05:58:45;1.88;;;1.30;;
25079;SDS011;13071;48.868;9.996;2023-08-06T06:01:12;1.17;;;1.10;;
25079;SDS011;13071;48.868;9.996;2023-08-06T06:03:39;1.75;;;1.45;;
25079;SDS011;13071;48.868;9.996;2023-08-06T06:06:05;2.60;;;1.20;;
25079;SDS011;13071;48.868;9.996;2023-08-06T06:08:32;2.40;;;1.30;;
25079;SDS011;13071;48.868;9.996;2023-08-06T06:10:59;5.03;;;1.50;;
25079;SDS011;13071;48.868;9.996;2023-08-06T06:13:25;4.10;;;1.23;;
25079;SDS011;13071;48.868;9.996;2023-08-06T06:15:55;4.03;;;1.48;;
25079;SDS011;13071;48.868;9.996;2023-08-06T06:18:21;1.40;;;1.30;;
25079;SDS011;13071;48.868;9.996;2023-08-06T06:20:48;1.52;;;1.20;;
25079;SDS011;13071;48.868;9.996;2023-08-06T06:23:15;1.20;;;1.20;;
25079;SDS011;13071;48.868;9.996;2023-08-06T06:25:42;1.20;;;1.13;;
25079;SDS011;13071;48.868;9.996;2023-08-06T06:28:09;2.85;;;1.10;;
25079;SDS011;13071;48.868;9.996;2023-08-06T06:30:36;1.23;;;1.23;;
25079;SDS011;13071;48.868;9.996;2023-08-06T06:33:04;5.80;;;1.10;;
25079;SDS011;13071;48.868;9.996;2023-08-06T06:35:30;1.30;;;1.08;;
25079;SDS011;13071;48.868;9.996;2023-08-06T06:37:57;1.10;;;1.00;;
25079;SDS011;13071;48.868;9.996;2023-08-06T06:40:24;1.33;;;1.20;;
25079;SDS011;13071;48.868;9.996;2023-08-06T06:42:50;1.13;;;1.08;;
25079;SDS011;13071;48.868;9.996;2023-08-06T06:45:17;3.35;;;1.00;;
25079;SDS011;13071;48.868;9.996;2023-08-06T06:47:44;1.77;;;1.00;;
25079;SDS011;13071;48.868;9.996;2023-08-06T06:50:12;1.23;;;1.13;;
25079;SDS011;13071;48.868;9.996;2023-08-06T06:52:38;4.00;;;2.13;;
25079;SDS011;13071;48.868;9.996;2023-08-06T06:55:05;4.18;;;1.85;;
25079;SDS011;13071;48.868;9.996;2023-08-06T06:57:32;2.28;;;1.48;;
25079;SDS011;13071;48.868;9.996;2023-08-06T06:59:58;1.35;;;1.15;;
25079;SDS011;13071;48.868;9.996;2023-08-06T07:02:25;2.00;;;1.20;;
25079;SDS011;13071;48.868;9.996;2023-08-06T07:04:52;0.85;;;0.85;;
25079;SDS011;13071;48.868;9.996;2023-08-06T07:07:23;1.90;;;1.30;;
25079;SDS011;13071;48.868;9.996;2023-08-06T07:09:51;1.15;;;0.93;;
25079;SDS011;13071;48.868;9.996;2023-08-06T07:12:17;0.80;;;0.77;;
25079;SDS011;13071;48.868;9.996;2023-08-06T07:14:44;1.27;;;0.88;;
25079;SDS011;13071;48.868;9.996;2023-08-06T07:17:10;5.90;;;0.95;;
25079;SDS011;13071;48.868;9.996;2023-08-06T07:19:37;1.10;;;0.80;;
25079;SDS011;13071;48.868;9.996;2023-08-06T07:22:04;1.35;;;0.80;;
25079;SDS011;13071;48.868;9.996;2023-08-06T07:24:32;1.67;;;0.82;;
25079;SDS011;13071;48.868;9.996;2023-08-06T07:26:59;0.88;;;0.60;;
25079;SDS011;13071;48.868;9.996;2023-08-06T07:29:26;2.45;;;0.80;;
25079;SDS011;13071;48.868;9.996;2023-08-06T07:31:52;2.40;;;0.70;;
25079;SDS011;13071;48.868;9.996;2023-08-06T07:34:20;2.95;;;0.90;;
25079;SDS011;13071;48.868;9.996;2023-08-06T07:36:47;1.20;;;0.73;;
25079;SDS011;13071;48.868;9.996;2023-08-06T07:39:13;1.20;;;0.75;;
25079;SDS011;13071;48.868;9.996;2023-08-06T07:41:43;4.28;;;0.90;;
25079;SDS011;13071;48.868;9.996;2023-08-06T07:44:11;2.17;;;0.70;;
25079;SDS011;13071;48.868;9.996;2023-08-06T07:46:37;2.42;;;0.98;;
25079;SDS011;13071;48.868;9.996;2023-08-06T07:49:04;0.90;;;0.73;;
25079;SDS011;13071;48.868;9.996;2023-08-06T07:51:31;2.67;;;0.80;;
25079;SDS011;13071;48.868;9.996;2023-08-06T07:53:57;2.15;;;0.77;;
25079;SDS011;13071;48.868;9.996;2023-08-06T07:56:24;1.13;;;0.60;;
25079;SDS011;13071;48.868;9.996;2023-08-06T07:58:52;1.00;;;0.50;;
25079;SDS011;13071;48.868;9.996;2023-08-06T08:01:18;4.50;;;0.70;;
25079;SDS011;13071;48.868;9.996;2023-08-06T08:03:45;0.50;;;0.50;;
25079;SDS011;13071;48.868;9.996;2023-08-06T08:06:12;0.63;;;0.40;;
25079;SDS011;13071;48.868;9.996;2023-08-06T08:08:38;1.02;;;0.70;;
25079;SDS011;13071;48.868;9.996;2023-08-06T08:11:05;1.67;;;0.60;;
25079;SDS011;13071;48.868;9.996;2023-08-06T08:13:32;0.85;;;0.50;;
25079;SDS011;13071;48.868;9.996;2023-08-06T08:16:00;0.60;;;0.60;;
25079;SDS011;13071;48.868;9.996;2023-08-06T08:18:27;1.30;;;0.60;;
25079;SDS011;13071;48.868;9.996;2023-08-06T08:20:56;0.55;;;0.50;;
25079;SDS011;13071;48.868;9.996;2023-08-06T08:23:22;0.47;;;0.47;;
25079;SDS011;13071;48.868;9.996;2023-08-06T08:25:49;0.30;;;0.30;;
25079;SDS011;13071;48.868;9.996;2023-08-06T08:28:16;0.20;;;0.20;;
25079;SDS011;13071;48.868;9.996;2023-08-06T08:30:43;0.88;;;0.30;;
25079;SDS011;13071;48.868;9.996;2023-08-06T08:33:11;0.15;;;0.15;;
25079;SDS011;13071;48.868;9.996;2023-08-06T08:35:37;0.20;;;0.20;;
25079;SDS011;13071;48.868;9.996;2023-08-06T08:38:04;0.40;;;0.40;;
25079;SDS011;13071;48.868;9.996;2023-08-06T08:40:32;0.28;;;0.28;;
25079;SDS011;13071;48.868;9.996;2023-08-06T08:42:59;0.95;;;0.30;;
25079;SDS011;13071;48.868;9.996;2023-08-06T08:45:26;0.43;;;0.30;;
25079;SDS011;13071;48.868;9.996;2023-08-06T08:47:55;0.35;;;0.28;;
25079;SDS011;13071;48.868;9.996;2023-08-06T08:50:24;0.30;;;0.30;;
25079;SDS011;13071;48.868;9.996;2023-08-06T08:52:50;1.15;;;1.00;;
25079;SDS011;13071;48.868;9.996;2023-08-06T08:55:18;0.50;;;0.50;;
25079;SDS011;13071;48.868;9.996;2023-08-06T08:57:50;0.50;;;0.50;;
25079;SDS011;13071;48.868;9.996;2023-08-06T09:00:17;0.30;;;0.30;;
25079;SDS011;13071;48.868;9.996;2023-08-06T09:02:43;4.68;;;2.58;;
25079;SDS011;13071;48.868;9.996;2023-08-06T09:05:11;22.25;;;6.15;;
25079;SDS011;13071;48.868;9.996;2023-08-06T09:07:42;1.00;;;0.90;;
25079;SDS011;13071;48.868;9.996;2023-08-06T09:10:10;0.73;;;0.47;;
25079;SDS011;13071;48.868;9.996;2023-08-06T09:12:38;0.60;;;0.60;;
25079;SDS011;13071;48.868;9.996;2023-08-06T09:15:05;2.20;;;0.70;;
25079;SDS011;13071;48.868;9.996;2023-08-06T09:17:33;3.45;;;1.15;;
25079;SDS011;13071;48.868;9.996;2023-08-06T09:20:02;5.05;;;2.33;;
25079;SDS011;13071;48.868;9.996;2023-08-06T09:22:36;1.08;;;0.98;;
25079;SDS011;13071;48.868;9.996;2023-08-06T09:25:04;0.80;;;0.80;;
25079;SDS011;13071;48.868;9.996;2023-08-06T09:27:35;2.65;;;0.50;;
25079;SDS011;13071;48.868;9.996;2023-08-06T09:30:03;0.30;;;0.30;;
25079;SDS011;13071;48.868;9.996;2023-08-06T09:32:36;0.28;;;0.28;;
25079;SDS011;13071;48.868;9.996;2023-08-06T09:35:15;0.30;;;0.30;;
25079;SDS011;13071;48.868;9.996;2023-08-06T09:37:42;0.30;;;0.30;;
25079;SDS011;13071;48.868;9.996;2023-08-06T09:40:24;0.25;;;0.25;;
25079;SDS011;13071;48.868;9.996;2023-08-06T09:42:51;0.20;;;0.20;;
25079;SDS011;13071;48.868;9.996;2023-08-06T09:45:18;0.32;;;0.32;;
25079;SDS011;13071;48.868;9.996;2023-08-06T09:47:46;0.30;;;0.30;;
25079;SDS011;13071;48.868;9.996;2023-08-06T09:50:14;1.75;;;0.17;;
25079;SDS011;13071;48.868;9.996;2023-08-06T09:52:43;0.43;;;0.20;;
25079;SDS011;13071;48.868;9.996;2023-08-06T09:55:10;1.17;;;0.10;;
25079;SDS011;13071;48.868;9.996;2023-08-06T09:57:40;0.22;;;0.10;;
25079;SDS011;13071;48.868;9.996;2023-08-06T10:00:07;0.20;;;0.10;;
25079;SDS011;13071;48.868;9.996;2023-08-06T10:02:35;0.32;;;0.30;;
25079;SDS011;13071;48.868;9.996;2023-08-06T10:05:04;0.20;;;0.20;;
25079;SDS011;13071;48.868;9.996;2023-08-06T10:07:32;0.10;;;0.10;;
25079;SDS011;13071;48.868;9.996;2023-08-06T10:09:58;0.17;;;0.17;;
25079;SDS011;13071;48.868;9.996;2023-08-06T10:12:26;0.20;;;0.20;;
25079;SDS011;13071;48.868;9.996;2023-08-06T10:14:59;0.80;;;0.52;;
25079;SDS011;13071;48.868;9.996;2023-08-06T10:17:29;0.30;;;0.28;;
25079;SDS011;13071;48.868;9.996;2023-08-06T10:19:58;0.10;;;0.10;;
25079;SDS011;13071;48.868;9.996;2023-08-06T10:22:25;0.30;;;0.20;;
25079;SDS011;13071;48.868;9.996;2023-08-06T10:24:53;0.20;;;0.20;;
25079;SDS011;13071;48.868;9.996;2023-08-06T10:27:28;0.17;;;0.17;;
25079;SDS011;13071;48.868;9.996;2023-08-06T10:29:56;0.80;;;0.20;;
25079;SDS011;13071;48.868;9.996;2023-08-06T10:32:47;0.15;;;0.15;;
25079;SDS011;13071;48.868;9.996;2023-08-06T10:35:27;0.25;;;0.20;;
25079;SDS011;13071;48.868;9.996;2023-08-06T10:37:57;0.22;;;0.22;;
25079;SDS011;13071;48.868;9.996;2023-08-06T10:40:26;0.30;;;0.30;;
25079;SDS011;13071;48.868;9.996;2023-08-06T10:42:54;0.20;;;0.20;;
25079;SDS011;13071;48.868;9.996;2023-08-06T10:45:21;0.20;;;0.20;;
25079;SDS011;13071;48.868;9.996;2023-08-06T10:47:55;0.40;;;0.40;;
25079;SDS011;13071;48.868;9.996;2023-08-06T10:50:22;0.20;;;0.20;;
25079;SDS011;13071;48.868;9.996;2023-08-06T10:52:50;0.20;;;0.20;;
25079;SDS011;13071;48.868;9.996;2023-08-06T10:55:23;0.22;;;0.22;;
25079;SDS011;13071;48.868;9.996;2023-08-06T10:57:51;0.10;;;0.10;;
25079;SDS011;13071;48.868;9.996;2023-08-06T11:00:18;0.25;;;0.25;;
25079;SDS011;13071;48.868;9.996;2023-08-06T11:02:46;0.60;;;0.22;;
25079;SDS011;13071;48.868;9.996;2023-08-06T11:05:15;0.20;;;0.20;;
25079;SDS011;13071;48.868;9.996;2023-08-06T11:07:42;0.25;;;0.25;;
25079;SDS011;13071;48.868;9.996;2023-08-06T11:10:10;0.20;;;0.20;;
25079;SDS011;13071;48.868;9.996;2023-08-06T11:12:38;0.20;;;0.20;;
25079;SDS011;13071;48.868;9.996;2023-08-06T11:15:05;0.17;;;0.17;;
25079;SDS011;13071;48.868;9.996;2023-08-06T11:17:32;0.22;;;0.22;;
25079;SDS011;13071;48.868;9.996;2023-08-06T11:20:00;0.32;;;0.32;;
25079;SDS011;13071;48.868;9.996;2023-08-06T11:22:28;0.20;;;0.20;;
25079;SDS011;13071;48.868;9.996;2023-08-06T11:24:55;0.82;;;0.50;;
25079;SDS011;13071;48.868;9.996;2023-08-06T11:27:22;0.32;;;0.30;;
25079;SDS011;13071;48.868;9.996;2023-08-06T11:29:49;0.20;;;0.20;;
25079;SDS011;13071;48.868;9.996;2023-08-06T11:32:15;0.25;;;0.25;;
25079;SDS011;13071;48.868;9.996;2023-08-06T11:34:42;0.10;;;0.10;;
25079;SDS011;13071;48.868;9.996;2023-08-06T11:37:10;0.20;;;0.20;;
25079;SDS011;13071;48.868;9.996;2023-08-06T11:39:38;0.20;;;0.20;;
25079;SDS011;13071;48.868;9.996;2023-08-06T11:42:05;0.20;;;0.20;;
25079;SDS011;13071;48.868;9.996;2023-08-06T11:44:33;0.20;;;0.20;;
25079;SDS011;13071;48.868;9.996;2023-08-06T11:47:02;0.20;;;0.20;;
25079;SDS011;13071;48.868;9.996;2023-08-06T11:49:37;0.40;;;0.40;;
25079;SDS011;13071;48.868;9.996;2023-08-06T11:52:08;0.20;;;0.20;;
25079;SDS011;13071;48.868;9.996;2023-08-06T11:54:38;0.52;;;0.28;;
25079;SDS011;13071;48.868;9.996;2023-08-06T11:57:05;0.60;;;0.22;;
25079;SDS011;13071;48.868;9.996;2023-08-06T11:59:31;0.25;;;0.25;;
25079;SDS011;13071;48.868;9.996;2023-08-06T12:01:59;0.20;;;0.20;;
25079;SDS011;13071;48.868;9.996;2023-08-06T12:04:28;0.80;;;0.20;;
25079;SDS011;13071;48.868;9.996;2023-08-06T12:06:55;0.55;;;0.55;;
25079;SDS011;13071;48.868;9.996;2023-08-06T12:09:21;0.68;;;0.32;;
25079;SDS011;13071;48.868;9.996;2023-08-06T12:11:50;0.30;;;0.30;;
25079;SDS011;13071;48.868;9.996;2023-08-06T12:14:17;0.55;;;0.47;;
25079;SDS011;13071;48.868;9.996;2023-08-06T12:16:44;0.38;;;0.38;;
25079;SDS011;13071;48.868;9.996;2023-08-06T12:19:10;0.50;;;0.50;;
25079;SDS011;13071;48.868;9.996;2023-08-06T12:21:37;0.65;;;0.55;;
25079;SDS011;13071;48.868;9.996;2023-08-06T12:24:04;0.77;;;0.50;;
25079;SDS011;13071;48.868;9.996;2023-08-06T12:26:31;0.52;;;0.52;;
25079;SDS011;13071;48.868;9.996;2023-08-06T12:28:59;0.60;;;0.60;;
25079;SDS011;13071;48.868;9.996;2023-08-06T12:31:26;0.60;;;0.60;;
25079;SDS011;13071;48.868;9.996;2023-08-06T12:33:52;0.90;;;0.57;;
25079;SDS011;13071;48.868;9.996;2023-08-06T12:36:19;0.50;;;0.50;;
25079;SDS011;13071;48.868;9.996;2023-08-06T12:38:46;0.60;;;0.60;;
25079;SDS011;13071;48.868;9.996;2023-08-06T12:41:12;0.50;;;0.50;;
25079;SDS011;13071;48.868;9.996;2023-08-06T12:43:39;0.60;;;0.60;;
25079;SDS011;13071;48.868;9.996;2023-08-06T12:46:07;1.08;;;0.85;;
25079;SDS011;13071;48.868;9.996;2023-08-06T12:48:34;0.68;;;0.68;;
25079;SDS011;13071;48.868;9.996;2023-08-06T12:51:00;1.10;;;1.00;;
25079;SDS011;13071;48.868;9.996;2023-08-06T12:53:27;0.77;;;0.77;;
25079;SDS011;13071;48.868;9.996;2023-08-06T12:55:53;0.80;;;0.80;;
25079;SDS011;13071;48.868;9.996;2023-08-06T12:58:20;0.90;;;0.90;;
25079;SDS011;13071;48.868;9.996;2023-08-06T13:00:47;0.90;;;0.90;;
25079;SDS011;13071;48.868;9.996;2023-08-06T13:03:15;1.08;;;0.98;;
25079;SDS011;13071;48.868;9.996;2023-08-06T13:05:42;1.40;;;1.30;;
25079;SDS011;13071;48.868;9.996;2023-08-06T13:08:10;3.20;;;1.70;;
25079;SDS011;13071;48.868;9.996;2023-08-06T13:10:37;1.77;;;1.23;;
25079;SDS011;13071;48.868;9.996;2023-08-06T13:13:03;4.45;;;2.15;;
25079;SDS011;13071;48.868;9.996;2023-08-06T13:15:30;1.48;;;1.38;;
25079;SDS011;13071;48.868;9.996;2023-08-06T13:17:56;2.67;;;1.52;;
25079;SDS011;13071;48.868;9.996;2023-08-06T13:20:24;2.03;;;1.60;;
25079;SDS011;13071;48.868;9.996;2023-08-06T13:22:52;1.23;;;1.20;;
25079;SDS011;13071;48.868;9.996;2023-08-06T13:25:19;2.70;;;1.77;;
25079;SDS011;13071;48.868;9.996;2023-08-06T13:27:45;3.92;;;1.90;;
25079;SDS011;13071;48.868;9.996;2023-08-06T13:30:12;5.35;;;1.35;;
25079;SDS011;13071;48.868;9.996;2023-08-06T13:32:39;2.70;;;2.00;;
25079;SDS011;13071;48.868;9.996;2023-08-06T13:35:06;3.25;;;1.92;;
25079;SDS011;13071;48.868;9.996;2023-08-06T13:37:35;3.30;;;1.92;;
25079;SDS011;13071;48.868;9.996;2023-08-06T13:40:02;3.92;;;1.45;;
25079;SDS011;13071;48.868;9.996;2023-08-06T13:42:28;2.20;;;1.60;;
25079;SDS011;13071;48.868;9.996;2023-08-06T13:44:57;3.50;;;1.70;;
25079;SDS011;13071;48.868;9.996;2023-08-06T13:47:28;1.77;;;1.58;;
25079;SDS011;13071;48.868;9.996;2023-08-06T13:49:55;3.38;;;1.77;;
25079;SDS011;13071;48.868;9.996;2023-08-06T13:52:22;2.83;;;1.80;;
25079;SDS011;13071;48.868;9.996;2023-08-06T13:54:50;2.92;;;1.75;;
25079;SDS011;13071;48.868;9.996;2023-08-06T13:57:16;1.95;;;1.60;;
25079;SDS011;13071;48.868;9.996;2023-08-06T13:59:43;4.18;;;1.88;;
25079;SDS011;13071;48.868;9.996;2023-08-06T14:02:10;5.18;;;2.05;;
25079;SDS011;13071;48.868;9.996;2023-08-06T14:04:37;3.60;;;2.08;;
25079;SDS011;13071;48.868;9.996;2023-08-06T14:07:05;3.10;;;1.70;;
25079;SDS011;13071;48.868;9.996;2023-08-06T14:09:32;1.92;;;1.35;;
25079;SDS011;13071;48.868;9.996;2023-08-06T14:12:00;3.10;;;1.42;;
25079;SDS011;13071;48.868;9.996;2023-08-06T14:14:28;2.63;;;1.33;;
25079;SDS011;13071;48.868;9.996;2023-08-06T14:16:55;3.75;;;1.63;;
25079;SDS011;13071;48.868;9.996;2023-08-06T14:19:21;1.50;;;1.40;;
25079;SDS011;13071;48.868;9.996;2023-08-06T14:21:48;2.25;;;1.30;;
25079;SDS011;13071;48.868;9.996;2023-08-06T14:24:15;2.63;;;1.48;;
25079;SDS011;13071;48.868;9.996;2023-08-06T14:26:42;1.60;;;1.50;;
25079;SDS011;13071;48.868;9.996;2023-08-06T14:29:10;2.13;;;1.35;;
25079;SDS011;13071;48.868;9.996;2023-08-06T14:31:38;1.70;;;1.45;;
25079;SDS011;13071;48.868;9.996;2023-08-06T14:34:05;1.33;;;1.23;;
25079;SDS011;13071;48.868;9.996;2023-08-06T14:36:31;1.63;;;1.30;;
25079;SDS011;13071;48.868;9.996;2023-08-06T14:38:58;1.73;;;1.63;;
25079;SDS011;13071;48.868;9.996;2023-08-06T14:41:25;1.17;;;1.17;;
25079;SDS011;13071;48.868;9.996;2023-08-06T14:43:52;1.52;;;1.38;;
25079;SDS011;13071;48.868;9.996;2023-08-06T14:46:20;0.80;;;0.80;;
25079;SDS011;13071;48.868;9.996;2023-08-06T14:48:47;2.67;;;1.05;;
25079;SDS011;13071;48.868;9.996;2023-08-06T14:51:13;0.73;;;0.73;;
25079;SDS011;13071;48.868;9.996;2023-08-06T14:53:40;1.70;;;1.08;;
25079;SDS011;13071;48.868;9.996;2023-08-06T14:56:07;1.20;;;1.10;;